sensor_id;sensor_type;location;lat;lon;timestamp;P1;durP1;ratioP1;P2;durP2;ratioP2
76495;SDS011;65329;52.544;4.662;2023-02-26T00:01:01;2.40;;;0.98;;
76495;SDS011;65329;52.544;4.662;2023-02-26T00:03:28;2.70;;;0.75;;
76495;SDS011;65329;52.544;4.662;2023-02-26T00:05:59;4.88;;;0.80;;
76495;SDS011;65329;52.544;4.662;2023-02-26T00:08:27;3.35;;;1.00;;
76495;SDS011;65329;52.544;4.662;2023-02-26T00:10:54;3.42;;;0.73;;
76495;SDS011;65329;52.544;4.662;2023-02-26T00:13:21;6.18;;;1.08;;
76495;SDS011;65329;52.544;4.662;2023-02-26T00:15:49;2.40;;;0.70;;
76495;SDS011;65329;52.544;4.662;2023-02-26T00:18:20;1.80;;;0.80;;
76495;SDS011;65329;52.544;4.662;2023-02-26T00:20:47;2.83;;;0.55;;
76495;SDS011;65329;52.544;4.662;2023-02-26T00:23:14;4.22;;;0.38;;
76495;SDS011;65329;52.544;4.662;2023-02-26T00:25:41;1.88;;;0.35;;
76495;SDS011;65329;52.544;4.662;2023-02-26T00:28:08;3.40;;;0.47;;
76495;SDS011;65329;52.544;4.662;2023-02-26T00:30:35;2.67;;;0.30;;
76495;SDS011;65329;52.544;4.662;2023-02-26T00:33:03;3.42;;;0.40;;
76495;SDS011;65329;52.544;4.662;2023-02-26T00:35:32;6.10;;;0.38;;
76495;SDS011;65329;52.544;4.662;2023-02-26T00:45:51;1.90;;;0.30;;
76495;SDS011;65329;52.544;4.662;2023-02-26T00:48:58;2.15;;;0.30;;
76495;SDS011;65329;52.544;4.662;2023-02-26T00:56:30;3.72;;;0.55;;
76495;SDS011;65329;52.544;4.662;2023-02-26T00:58:58;1.98;;;0.43;;
76495;SDS011;65329;52.544;4.662;2023-02-26T01:01:27;2.97;;;0.40;;
76495;SDS011;65329;52.544;4.662;2023-02-26T01:03:54;3.25;;;0.52;;
76495;SDS011;65329;52.544;4.662;2023-02-26T01:06:21;2.60;;;0.80;;
76495;SDS011;65329;52.544;4.662;2023-02-26T01:09:00;2.55;;;0.30;;
76495;SDS011;65329;52.544;4.662;2023-02-26T01:11:38;3.70;;;0.50;;
76495;SDS011;65329;52.544;4.662;2023-02-26T01:14:05;5.03;;;1.05;;
76495;SDS011;65329;52.544;4.662;2023-02-26T01:16:37;3.17;;;0.45;;
76495;SDS011;65329;52.544;4.662;2023-02-26T01:19:27;2.03;;;0.82;;
76495;SDS011;65329;52.544;4.662;2023-02-26T01:22:00;3.22;;;0.73;;
76495;SDS011;65329;52.544;4.662;2023-02-26T01:24:38;2.22;;;0.43;;
76495;SDS011;65329;52.544;4.662;2023-02-26T01:27:05;3.50;;;0.40;;
76495;SDS011;65329;52.544;4.662;2023-02-26T01:29:32;2.65;;;0.65;;
76495;SDS011;65329;52.544;4.662;2023-02-26T01:32:01;5.20;;;0.93;;
76495;SDS011;65329;52.544;4.662;2023-02-26T01:34:34;2.33;;;0.22;;
76495;SDS011;65329;52.544;4.662;2023-02-26T01:40:02;3.03;;;0.43;;
76495;SDS011;65329;52.544;4.662;2023-02-26T01:42:45;3.17;;;0.63;;
76495;SDS011;65329;52.544;4.662;2023-02-26T01:45:23;1.73;;;0.30;;
76495;SDS011;65329;52.544;4.662;2023-02-26T01:47:59;3.45;;;0.57;;
76495;SDS011;65329;52.544;4.662;2023-02-26T01:50:33;1.98;;;0.55;;
76495;SDS011;65329;52.544;4.662;2023-02-26T01:55:57;6.68;;;0.80;;
76495;SDS011;65329;52.544;4.662;2023-02-26T01:58:29;2.75;;;0.50;;
76495;SDS011;65329;52.544;4.662;2023-02-26T02:00:59;0.55;;;0.17;;
76495;SDS011;65329;52.544;4.662;2023-02-26T02:03:27;5.78;;;0.73;;
76495;SDS011;65329;52.544;4.662;2023-02-26T02:05:59;2.70;;;0.40;;
76495;SDS011;65329;52.544;4.662;2023-02-26T02:08:31;3.25;;;0.77;;
76495;SDS011;65329;52.544;4.662;2023-02-26T02:11:02;4.43;;;0.60;;
76495;SDS011;65329;52.544;4.662;2023-02-26T02:13:47;3.58;;;0.70;;
76495;SDS011;65329;52.544;4.662;2023-02-26T02:25:54;2.13;;;0.30;;
76495;SDS011;65329;52.544;4.662;2023-02-26T02:33:39;2.88;;;0.40;;
76495;SDS011;65329;52.544;4.662;2023-02-26T02:36:14;1.02;;;0.20;;
76495;SDS011;65329;52.544;4.662;2023-02-26T02:38:53;1.42;;;0.40;;
76495;SDS011;65329;52.544;4.662;2023-02-26T02:41:34;2.53;;;0.40;;
76495;SDS011;65329;52.544;4.662;2023-02-26T02:44:07;3.95;;;0.45;;
76495;SDS011;65329;52.544;4.662;2023-02-26T02:46:38;3.85;;;1.25;;
76495;SDS011;65329;52.544;4.662;2023-02-26T02:49:29;32.10;;;16.85;;
76495;SDS011;65329;52.544;4.662;2023-02-26T02:52:08;46.95;;;25.60;;
76495;SDS011;65329;52.544;4.662;2023-02-26T02:55:03;63.75;;;37.20;;
76495;SDS011;65329;52.544;4.662;2023-02-26T02:57:36;19.83;;;9.77;;
76495;SDS011;65329;52.544;4.662;2023-02-26T03:00:10;5.35;;;1.23;;
76495;SDS011;65329;52.544;4.662;2023-02-26T03:05:14;2.33;;;0.70;;
76495;SDS011;65329;52.544;4.662;2023-02-26T03:07:45;5.50;;;1.08;;
76495;SDS011;65329;52.544;4.662;2023-02-26T03:10:17;2.33;;;0.50;;
76495;SDS011;65329;52.544;4.662;2023-02-26T03:12:44;3.58;;;0.88;;
76495;SDS011;65329;52.544;4.662;2023-02-26T03:15:11;1.65;;;0.38;;
76495;SDS011;65329;52.544;4.662;2023-02-26T03:17:53;2.33;;;0.40;;
76495;SDS011;65329;52.544;4.662;2023-02-26T03:20:36;4.03;;;0.57;;
76495;SDS011;65329;52.544;4.662;2023-02-26T03:23:16;3.08;;;0.70;;
76495;SDS011;65329;52.544;4.662;2023-02-26T03:28:39;2.03;;;0.40;;
76495;SDS011;65329;52.544;4.662;2023-02-26T03:33:58;1.25;;;0.65;;
76495;SDS011;65329;52.544;4.662;2023-02-26T03:36:34;4.72;;;0.77;;
76495;SDS011;65329;52.544;4.662;2023-02-26T03:39:34;3.53;;;0.93;;
76495;SDS011;65329;52.544;4.662;2023-02-26T03:45:02;2.20;;;0.73;;
76495;SDS011;65329;52.544;4.662;2023-02-26T03:47:31;1.58;;;0.70;;
76495;SDS011;65329;52.544;4.662;2023-02-26T03:50:06;3.42;;;0.70;;
76495;SDS011;65329;52.544;4.662;2023-02-26T03:52:46;1.67;;;0.50;;
76495;SDS011;65329;52.544;4.662;2023-02-26T03:55:57;1.30;;;0.50;;
76495;SDS011;65329;52.544;4.662;2023-02-26T03:59:01;1.63;;;0.50;;
76495;SDS011;65329;52.544;4.662;2023-02-26T04:02:04;1.30;;;0.43;;
76495;SDS011;65329;52.544;4.662;2023-02-26T04:04:53;6.53;;;0.82;;
76495;SDS011;65329;52.544;4.662;2023-02-26T04:07:24;6.07;;;0.70;;
76495;SDS011;65329;52.544;4.662;2023-02-26T04:09:52;2.40;;;0.40;;
76495;SDS011;65329;52.544;4.662;2023-02-26T04:12:24;3.50;;;0.45;;
76495;SDS011;65329;52.544;4.662;2023-02-26T04:14:56;1.25;;;0.85;;
76495;SDS011;65329;52.544;4.662;2023-02-26T04:17:24;3.15;;;0.40;;
76495;SDS011;65329;52.544;4.662;2023-02-26T04:19:51;3.55;;;0.50;;
76495;SDS011;65329;52.544;4.662;2023-02-26T04:22:18;0.82;;;0.30;;
76495;SDS011;65329;52.544;4.662;2023-02-26T04:24:45;1.42;;;0.43;;
76495;SDS011;65329;52.544;4.662;2023-02-26T04:27:13;2.72;;;0.57;;
76495;SDS011;65329;52.544;4.662;2023-02-26T04:29:40;2.80;;;0.43;;
76495;SDS011;65329;52.544;4.662;2023-02-26T04:32:07;2.55;;;0.50;;
76495;SDS011;65329;52.544;4.662;2023-02-26T04:34:35;1.45;;;0.32;;
76495;SDS011;65329;52.544;4.662;2023-02-26T04:37:02;4.22;;;0.75;;
76495;SDS011;65329;52.544;4.662;2023-02-26T04:39:30;2.08;;;0.60;;
76495;SDS011;65329;52.544;4.662;2023-02-26T04:41:56;3.55;;;0.70;;
76495;SDS011;65329;52.544;4.662;2023-02-26T04:44:23;2.13;;;0.47;;
76495;SDS011;65329;52.544;4.662;2023-02-26T04:46:51;4.07;;;0.70;;
76495;SDS011;65329;52.544;4.662;2023-02-26T04:49:18;5.40;;;0.50;;
76495;SDS011;65329;52.544;4.662;2023-02-26T04:51:46;2.05;;;0.30;;
76495;SDS011;65329;52.544;4.662;2023-02-26T04:54:14;1.90;;;0.68;;
76495;SDS011;65329;52.544;4.662;2023-02-26T04:56:42;1.65;;;0.80;;
76495;SDS011;65329;52.544;4.662;2023-02-26T04:59:08;1.23;;;0.63;;
76495;SDS011;65329;52.544;4.662;2023-02-26T05:01:35;2.22;;;0.43;;
76495;SDS011;65329;52.544;4.662;2023-02-26T05:04:06;2.50;;;0.40;;
76495;SDS011;65329;52.544;4.662;2023-02-26T05:06:33;3.33;;;0.70;;
76495;SDS011;65329;52.544;4.662;2023-02-26T05:09:00;2.45;;;0.63;;
76495;SDS011;65329;52.544;4.662;2023-02-26T05:11:26;4.07;;;0.70;;
76495;SDS011;65329;52.544;4.662;2023-02-26T05:13:53;2.45;;;0.65;;
76495;SDS011;65329;52.544;4.662;2023-02-26T05:16:21;2.20;;;0.40;;
76495;SDS011;65329;52.544;4.662;2023-02-26T05:18:48;2.97;;;0.60;;
76495;SDS011;65329;52.544;4.662;2023-02-26T05:21:16;4.35;;;0.68;;
76495;SDS011;65329;52.544;4.662;2023-02-26T05:23:43;2.13;;;0.52;;
76495;SDS011;65329;52.544;4.662;2023-02-26T05:26:10;2.55;;;0.60;;
76495;SDS011;65329;52.544;4.662;2023-02-26T05:28:36;2.13;;;0.40;;
76495;SDS011;65329;52.544;4.662;2023-02-26T05:31:04;4.57;;;0.70;;
76495;SDS011;65329;52.544;4.662;2023-02-26T05:33:32;3.08;;;0.65;;
76495;SDS011;65329;52.544;4.662;2023-02-26T05:35:59;4.28;;;0.80;;
76495;SDS011;65329;52.544;4.662;2023-02-26T05:38:25;1.90;;;0.38;;
76495;SDS011;65329;52.544;4.662;2023-02-26T05:40:55;1.27;;;0.50;;
76495;SDS011;65329;52.544;4.662;2023-02-26T05:43:23;3.83;;;0.70;;
76495;SDS011;65329;52.544;4.662;2023-02-26T05:45:51;2.53;;;0.50;;
76495;SDS011;65329;52.544;4.662;2023-02-26T05:48:18;3.90;;;0.43;;
76495;SDS011;65329;52.544;4.662;2023-02-26T05:50:45;2.50;;;0.60;;
76495;SDS011;65329;52.544;4.662;2023-02-26T05:53:12;3.10;;;0.77;;
76495;SDS011;65329;52.544;4.662;2023-02-26T05:55:41;1.83;;;0.40;;
76495;SDS011;65329;52.544;4.662;2023-02-26T05:58:07;4.97;;;0.60;;
76495;SDS011;65329;52.544;4.662;2023-02-26T06:00:36;1.92;;;0.63;;
76495;SDS011;65329;52.544;4.662;2023-02-26T06:03:03;0.68;;;0.40;;
76495;SDS011;65329;52.544;4.662;2023-02-26T06:05:30;1.77;;;0.50;;
76495;SDS011;65329;52.544;4.662;2023-02-26T06:07:56;2.25;;;0.30;;
76495;SDS011;65329;52.544;4.662;2023-02-26T06:10:23;2.05;;;0.50;;
76495;SDS011;65329;52.544;4.662;2023-02-26T06:12:50;1.23;;;0.40;;
76495;SDS011;65329;52.544;4.662;2023-02-26T06:15:17;3.03;;;0.50;;
76495;SDS011;65329;52.544;4.662;2023-02-26T06:17:44;2.97;;;0.52;;
76495;SDS011;65329;52.544;4.662;2023-02-26T06:20:11;5.03;;;0.77;;
76495;SDS011;65329;52.544;4.662;2023-02-26T06:22:39;3.08;;;0.60;;
76495;SDS011;65329;52.544;4.662;2023-02-26T06:25:06;6.25;;;0.98;;
76495;SDS011;65329;52.544;4.662;2023-02-26T06:27:33;3.13;;;0.80;;
76495;SDS011;65329;52.544;4.662;2023-02-26T06:30:01;3.13;;;0.73;;
76495;SDS011;65329;52.544;4.662;2023-02-26T06:32:28;2.70;;;0.68;;
76495;SDS011;65329;52.544;4.662;2023-02-26T06:34:56;2.50;;;0.70;;
76495;SDS011;65329;52.544;4.662;2023-02-26T06:37:23;2.42;;;0.50;;
76495;SDS011;65329;52.544;4.662;2023-02-26T06:39:50;3.55;;;0.40;;
76495;SDS011;65329;52.544;4.662;2023-02-26T06:42:18;1.35;;;0.17;;
76495;SDS011;65329;52.544;4.662;2023-02-26T06:44:45;2.05;;;0.30;;
76495;SDS011;65329;52.544;4.662;2023-02-26T06:47:12;5.78;;;0.40;;
76495;SDS011;65329;52.544;4.662;2023-02-26T06:49:40;2.55;;;0.47;;
76495;SDS011;65329;52.544;4.662;2023-02-26T06:52:07;5.18;;;0.40;;
76495;SDS011;65329;52.544;4.662;2023-02-26T06:54:34;0.85;;;0.20;;
76495;SDS011;65329;52.544;4.662;2023-02-26T06:57:01;4.43;;;1.05;;
76495;SDS011;65329;52.544;4.662;2023-02-26T06:59:29;0.88;;;0.30;;
76495;SDS011;65329;52.544;4.662;2023-02-26T07:01:56;2.10;;;1.02;;
76495;SDS011;65329;52.544;4.662;2023-02-26T07:04:23;2.15;;;0.40;;
76495;SDS011;65329;52.544;4.662;2023-02-26T07:06:50;1.23;;;0.40;;
76495;SDS011;65329;52.544;4.662;2023-02-26T07:09:17;1.70;;;0.40;;
76495;SDS011;65329;52.544;4.662;2023-02-26T07:11:47;1.85;;;0.20;;
76495;SDS011;65329;52.544;4.662;2023-02-26T07:14:15;3.17;;;0.25;;
76495;SDS011;65329;52.544;4.662;2023-02-26T07:16:42;1.65;;;0.50;;
76495;SDS011;65329;52.544;4.662;2023-02-26T07:19:10;7.38;;;0.47;;
76495;SDS011;65329;52.544;4.662;2023-02-26T07:21:37;0.73;;;0.35;;
76495;SDS011;65329;52.544;4.662;2023-02-26T07:24:04;2.20;;;0.20;;
76495;SDS011;65329;52.544;4.662;2023-02-26T07:26:31;1.60;;;0.25;;
76495;SDS011;65329;52.544;4.662;2023-02-26T07:28:58;2.92;;;0.30;;
76495;SDS011;65329;52.544;4.662;2023-02-26T07:31:25;3.33;;;0.60;;
76495;SDS011;65329;52.544;4.662;2023-02-26T07:33:53;1.30;;;0.25;;
76495;SDS011;65329;52.544;4.662;2023-02-26T07:36:20;2.38;;;0.50;;
76495;SDS011;65329;52.544;4.662;2023-02-26T07:38:47;2.22;;;0.47;;
76495;SDS011;65329;52.544;4.662;2023-02-26T07:41:14;2.90;;;0.45;;
76495;SDS011;65329;52.544;4.662;2023-02-26T07:43:41;0.73;;;0.40;;
76495;SDS011;65329;52.544;4.662;2023-02-26T07:46:08;5.95;;;0.68;;
76495;SDS011;65329;52.544;4.662;2023-02-26T07:48:35;0.60;;;0.20;;
76495;SDS011;65329;52.544;4.662;2023-02-26T07:51:03;1.15;;;0.30;;
76495;SDS011;65329;52.544;4.662;2023-02-26T07:53:30;5.88;;;0.68;;
76495;SDS011;65329;52.544;4.662;2023-02-26T07:55:57;1.90;;;0.38;;
76495;SDS011;65329;52.544;4.662;2023-02-26T07:58:24;1.60;;;0.45;;
76495;SDS011;65329;52.544;4.662;2023-02-26T08:00:51;2.72;;;0.30;;
76495;SDS011;65329;52.544;4.662;2023-02-26T08:03:18;3.60;;;0.40;;
76495;SDS011;65329;52.544;4.662;2023-02-26T08:05:46;1.17;;;0.47;;
76495;SDS011;65329;52.544;4.662;2023-02-26T08:08:13;1.35;;;0.15;;
76495;SDS011;65329;52.544;4.662;2023-02-26T08:10:40;2.85;;;0.40;;
76495;SDS011;65329;52.544;4.662;2023-02-26T08:13:07;2.08;;;0.40;;
76495;SDS011;65329;52.544;4.662;2023-02-26T08:15:34;1.80;;;0.43;;
76495;SDS011;65329;52.544;4.662;2023-02-26T08:18:01;1.08;;;0.20;;
76495;SDS011;65329;52.544;4.662;2023-02-26T08:20:29;1.20;;;0.50;;
76495;SDS011;65329;52.544;4.662;2023-02-26T08:22:56;1.50;;;0.40;;
76495;SDS011;65329;52.544;4.662;2023-02-26T08:25:23;3.95;;;0.43;;
76495;SDS011;65329;52.544;4.662;2023-02-26T08:27:50;1.38;;;0.30;;
76495;SDS011;65329;52.544;4.662;2023-02-26T08:30:17;1.77;;;0.57;;
76495;SDS011;65329;52.544;4.662;2023-02-26T08:32:44;1.33;;;0.30;;
76495;SDS011;65329;52.544;4.662;2023-02-26T08:35:11;2.53;;;1.10;;
76495;SDS011;65329;52.544;4.662;2023-02-26T08:37:38;1.77;;;0.38;;
76495;SDS011;65329;52.544;4.662;2023-02-26T08:40:06;2.75;;;0.30;;
76495;SDS011;65329;52.544;4.662;2023-02-26T08:42:34;1.90;;;0.20;;
76495;SDS011;65329;52.544;4.662;2023-02-26T08:45:02;0.95;;;0.28;;
76495;SDS011;65329;52.544;4.662;2023-02-26T08:47:29;1.92;;;0.22;;
76495;SDS011;65329;52.544;4.662;2023-02-26T08:49:58;2.90;;;0.68;;
76495;SDS011;65329;52.544;4.662;2023-02-26T08:52:25;2.33;;;0.50;;
76495;SDS011;65329;52.544;4.662;2023-02-26T08:54:52;2.72;;;0.60;;
76495;SDS011;65329;52.544;4.662;2023-02-26T08:57:19;2.38;;;0.70;;
76495;SDS011;65329;52.544;4.662;2023-02-26T08:59:47;1.38;;;0.40;;
76495;SDS011;65329;52.544;4.662;2023-02-26T09:02:15;1.90;;;0.32;;
76495;SDS011;65329;52.544;4.662;2023-02-26T09:04:42;0.80;;;0.32;;
76495;SDS011;65329;52.544;4.662;2023-02-26T09:07:09;1.95;;;0.30;;
76495;SDS011;65329;52.544;4.662;2023-02-26T09:09:36;2.80;;;0.45;;
76495;SDS011;65329;52.544;4.662;2023-02-26T09:12:03;1.83;;;0.28;;
76495;SDS011;65329;52.544;4.662;2023-02-26T09:14:30;0.65;;;0.50;;
76495;SDS011;65329;52.544;4.662;2023-02-26T09:16:57;0.65;;;0.20;;
76495;SDS011;65329;52.544;4.662;2023-02-26T09:19:24;0.52;;;0.30;;
76495;SDS011;65329;52.544;4.662;2023-02-26T09:21:51;1.95;;;0.30;;
76495;SDS011;65329;52.544;4.662;2023-02-26T09:24:21;4.05;;;0.20;;
76495;SDS011;65329;52.544;4.662;2023-02-26T09:26:48;5.22;;;0.50;;
76495;SDS011;65329;52.544;4.662;2023-02-26T09:29:15;4.88;;;0.77;;
76495;SDS011;65329;52.544;4.662;2023-02-26T09:31:43;1.85;;;0.13;;
76495;SDS011;65329;52.544;4.662;2023-02-26T09:34:10;1.27;;;0.40;;
76495;SDS011;65329;52.544;4.662;2023-02-26T09:36:39;2.20;;;0.32;;
76495;SDS011;65329;52.544;4.662;2023-02-26T09:39:06;1.33;;;0.30;;
76495;SDS011;65329;52.544;4.662;2023-02-26T09:41:41;1.40;;;0.30;;
76495;SDS011;65329;52.544;4.662;2023-02-26T09:44:22;2.47;;;0.50;;
76495;SDS011;65329;52.544;4.662;2023-02-26T09:52:10;2.63;;;0.40;;
76495;SDS011;65329;52.544;4.662;2023-02-26T09:54:48;2.65;;;0.35;;
76495;SDS011;65329;52.544;4.662;2023-02-26T09:57:32;1.80;;;0.28;;
76495;SDS011;65329;52.544;4.662;2023-02-26T10:00:01;1.85;;;0.30;;
76495;SDS011;65329;52.544;4.662;2023-02-26T10:05:29;2.90;;;0.30;;
76495;SDS011;65329;52.544;4.662;2023-02-26T10:08:08;4.57;;;0.40;;
76495;SDS011;65329;52.544;4.662;2023-02-26T10:13:36;1.92;;;0.38;;
76495;SDS011;65329;52.544;4.662;2023-02-26T10:16:23;3.03;;;0.50;;
76495;SDS011;65329;52.544;4.662;2023-02-26T10:18:58;2.30;;;0.77;;
76495;SDS011;65329;52.544;4.662;2023-02-26T10:24:08;3.10;;;0.50;;
76495;SDS011;65329;52.544;4.662;2023-02-26T10:26:47;2.60;;;0.38;;
76495;SDS011;65329;52.544;4.662;2023-02-26T10:29:23;2.80;;;0.32;;
76495;SDS011;65329;52.544;4.662;2023-02-26T10:35:26;2.78;;;0.32;;
76495;SDS011;65329;52.544;4.662;2023-02-26T10:37:57;1.23;;;0.20;;
76495;SDS011;65329;52.544;4.662;2023-02-26T10:40:37;1.40;;;0.20;;
76495;SDS011;65329;52.544;4.662;2023-02-26T10:46:11;3.22;;;0.30;;
76495;SDS011;65329;52.544;4.662;2023-02-26T10:51:18;0.57;;;0.20;;
76495;SDS011;65329;52.544;4.662;2023-02-26T10:53:48;1.83;;;0.30;;
76495;SDS011;65329;52.544;4.662;2023-02-26T10:56:24;2.85;;;0.30;;
76495;SDS011;65329;52.544;4.662;2023-02-26T10:58:55;3.15;;;0.30;;
76495;SDS011;65329;52.544;4.662;2023-02-26T11:01:23;2.17;;;0.30;;
76495;SDS011;65329;52.544;4.662;2023-02-26T11:03:54;0.98;;;0.20;;
76495;SDS011;65329;52.544;4.662;2023-02-26T11:06:29;0.77;;;0.13;;
76495;SDS011;65329;52.544;4.662;2023-02-26T11:09:02;1.15;;;0.20;;
76495;SDS011;65329;52.544;4.662;2023-02-26T11:11:36;2.58;;;0.28;;
76495;SDS011;65329;52.544;4.662;2023-02-26T11:14:07;1.95;;;0.30;;
76495;SDS011;65329;52.544;4.662;2023-02-26T11:16:40;0.32;;;0.20;;
76495;SDS011;65329;52.544;4.662;2023-02-26T11:19:11;1.63;;;0.43;;
76495;SDS011;65329;52.544;4.662;2023-02-26T11:21:40;0.80;;;0.20;;
76495;SDS011;65329;52.544;4.662;2023-02-26T11:26:57;0.85;;;0.25;;
76495;SDS011;65329;52.544;4.662;2023-02-26T11:29:36;0.93;;;0.25;;
76495;SDS011;65329;52.544;4.662;2023-02-26T11:32:06;1.85;;;0.43;;
76495;SDS011;65329;52.544;4.662;2023-02-26T11:34:46;2.45;;;0.25;;
76495;SDS011;65329;52.544;4.662;2023-02-26T11:37:18;3.88;;;0.35;;
76495;SDS011;65329;52.544;4.662;2023-02-26T11:39:51;2.03;;;0.25;;
76495;SDS011;65329;52.544;4.662;2023-02-26T11:42:24;0.10;;;0.08;;
76495;SDS011;65329;52.544;4.662;2023-02-26T11:44:53;2.33;;;0.22;;
76495;SDS011;65329;52.544;4.662;2023-02-26T11:47:25;2.42;;;0.28;;
76495;SDS011;65329;52.544;4.662;2023-02-26T11:49:59;0.28;;;0.13;;
76495;SDS011;65329;52.544;4.662;2023-02-26T11:55:16;1.58;;;0.47;;
76495;SDS011;65329;52.544;4.662;2023-02-26T11:57:59;2.53;;;0.43;;
76495;SDS011;65329;52.544;4.662;2023-02-26T12:00:31;0.90;;;0.20;;
76495;SDS011;65329;52.544;4.662;2023-02-26T12:03:15;1.55;;;0.25;;
76495;SDS011;65329;52.544;4.662;2023-02-26T12:05:45;1.35;;;0.10;;
76495;SDS011;65329;52.544;4.662;2023-02-26T12:08:15;2.92;;;0.20;;
76495;SDS011;65329;52.544;4.662;2023-02-26T12:16:41;2.50;;;0.52;;
76495;SDS011;65329;52.544;4.662;2023-02-26T12:19:35;0.68;;;0.25;;
76495;SDS011;65329;52.544;4.662;2023-02-26T12:27:41;1.10;;;0.20;;
76495;SDS011;65329;52.544;4.662;2023-02-26T12:33:16;1.48;;;0.50;;
76495;SDS011;65329;52.544;4.662;2023-02-26T12:38:47;3.08;;;1.13;;
76495;SDS011;65329;52.544;4.662;2023-02-26T12:55:56;1.60;;;0.38;;
76495;SDS011;65329;52.544;4.662;2023-02-26T13:10:40;2.90;;;0.30;;
76495;SDS011;65329;52.544;4.662;2023-02-26T13:19:06;0.77;;;0.10;;
76495;SDS011;65329;52.544;4.662;2023-02-26T13:21:56;1.55;;;0.20;;
76495;SDS011;65329;52.544;4.662;2023-02-26T13:27:05;0.77;;;0.20;;
76495;SDS011;65329;52.544;4.662;2023-02-26T13:29:36;3.38;;;0.20;;
76495;SDS011;65329;52.544;4.662;2023-02-26T13:32:10;3.25;;;0.65;;
76495;SDS011;65329;52.544;4.662;2023-02-26T13:37:21;2.20;;;0.20;;
76495;SDS011;65329;52.544;4.662;2023-02-26T13:45:22;1.80;;;0.30;;
76495;SDS011;65329;52.544;4.662;2023-02-26T13:57:04;3.25;;;0.30;;
76495;SDS011;65329;52.544;4.662;2023-02-26T14:01:54;0.47;;;0.10;;
76495;SDS011;65329;52.544;4.662;2023-02-26T14:04:32;1.75;;;0.20;;
76495;SDS011;65329;52.544;4.662;2023-02-26T14:07:17;1.90;;;0.15;;
76495;SDS011;65329;52.544;4.662;2023-02-26T14:10:16;1.83;;;0.13;;
76495;SDS011;65329;52.544;4.662;2023-02-26T14:13:09;2.25;;;0.50;;
76495;SDS011;65329;52.544;4.662;2023-02-26T14:15:49;0.60;;;0.38;;
76495;SDS011;65329;52.544;4.662;2023-02-26T14:18:27;2.10;;;0.20;;
76495;SDS011;65329;52.544;4.662;2023-02-26T14:21:35;1.08;;;0.15;;
76495;SDS011;65329;52.544;4.662;2023-02-26T14:24:09;0.55;;;0.20;;
76495;SDS011;65329;52.544;4.662;2023-02-26T14:29:42;0.80;;;0.20;;
76495;SDS011;65329;52.544;4.662;2023-02-26T14:32:25;1.13;;;0.20;;
76495;SDS011;65329;52.544;4.662;2023-02-26T14:35:15;0.43;;;0.17;;
76495;SDS011;65329;52.544;4.662;2023-02-26T14:40:56;1.75;;;0.28;;
76495;SDS011;65329;52.544;4.662;2023-02-26T14:43:38;2.08;;;0.35;;
76495;SDS011;65329;52.544;4.662;2023-02-26T14:46:08;1.05;;;0.30;;
76495;SDS011;65329;52.544;4.662;2023-02-26T14:48:37;2.35;;;0.38;;
76495;SDS011;65329;52.544;4.662;2023-02-26T14:51:43;1.40;;;0.25;;
76495;SDS011;65329;52.544;4.662;2023-02-26T14:54:24;1.42;;;0.52;;
76495;SDS011;65329;52.544;4.662;2023-02-26T14:57:01;1.73;;;0.65;;
76495;SDS011;65329;52.544;4.662;2023-02-26T15:16:25;2.28;;;0.80;;
76495;SDS011;65329;52.544;4.662;2023-02-26T15:22:03;3.55;;;0.47;;
76495;SDS011;65329;52.544;4.662;2023-02-26T15:24:33;1.63;;;0.40;;
76495;SDS011;65329;52.544;4.662;2023-02-26T15:27:00;1.65;;;0.32;;
76495;SDS011;65329;52.544;4.662;2023-02-26T15:29:33;2.35;;;0.40;;
76495;SDS011;65329;52.544;4.662;2023-02-26T15:32:13;5.25;;;1.15;;
76495;SDS011;65329;52.544;4.662;2023-02-26T15:34:46;2.05;;;0.60;;
76495;SDS011;65329;52.544;4.662;2023-02-26T15:37:21;1.98;;;0.55;;
76495;SDS011;65329;52.544;4.662;2023-02-26T15:39:51;0.77;;;0.22;;
76495;SDS011;65329;52.544;4.662;2023-02-26T15:42:18;3.35;;;0.50;;
76495;SDS011;65329;52.544;4.662;2023-02-26T15:44:48;1.10;;;0.40;;
76495;SDS011;65329;52.544;4.662;2023-02-26T15:47:22;0.98;;;0.35;;
76495;SDS011;65329;52.544;4.662;2023-02-26T15:49:50;1.60;;;0.28;;
76495;SDS011;65329;52.544;4.662;2023-02-26T15:52:18;2.47;;;0.50;;
76495;SDS011;65329;52.544;4.662;2023-02-26T15:57:26;0.98;;;0.17;;
76495;SDS011;65329;52.544;4.662;2023-02-26T15:59:59;9.07;;;0.63;;
76495;SDS011;65329;52.544;4.662;2023-02-26T16:02:39;3.50;;;0.50;;
76495;SDS011;65329;52.544;4.662;2023-02-26T16:05:07;1.98;;;0.50;;
76495;SDS011;65329;52.544;4.662;2023-02-26T16:07:39;2.67;;;1.00;;
76495;SDS011;65329;52.544;4.662;2023-02-26T16:10:13;5.50;;;1.08;;
76495;SDS011;65329;52.544;4.662;2023-02-26T16:12:42;3.95;;;0.90;;
76495;SDS011;65329;52.544;4.662;2023-02-26T16:15:16;3.40;;;0.68;;
76495;SDS011;65329;52.544;4.662;2023-02-26T16:17:50;3.88;;;0.57;;
76495;SDS011;65329;52.544;4.662;2023-02-26T16:20:20;4.28;;;0.90;;
76495;SDS011;65329;52.544;4.662;2023-02-26T16:23:01;4.47;;;0.70;;
76495;SDS011;65329;52.544;4.662;2023-02-26T16:25:37;3.90;;;0.90;;
76495;SDS011;65329;52.544;4.662;2023-02-26T16:28:41;3.03;;;0.77;;
76495;SDS011;65329;52.544;4.662;2023-02-26T16:31:15;3.22;;;0.80;;
76495;SDS011;65329;52.544;4.662;2023-02-26T16:33:52;5.90;;;1.02;;
76495;SDS011;65329;52.544;4.662;2023-02-26T16:36:22;3.63;;;0.80;;
76495;SDS011;65329;52.544;4.662;2023-02-26T16:39:09;6.80;;;1.30;;
76495;SDS011;65329;52.544;4.662;2023-02-26T16:41:45;1.45;;;0.60;;
76495;SDS011;65329;52.544;4.662;2023-02-26T16:46:56;0.85;;;0.32;;
76495;SDS011;65329;52.544;4.662;2023-02-26T16:49:31;3.50;;;0.70;;
76495;SDS011;65329;52.544;4.662;2023-02-26T16:52:00;4.10;;;0.80;;
76495;SDS011;65329;52.544;4.662;2023-02-26T16:54:35;4.47;;;2.10;;
76495;SDS011;65329;52.544;4.662;2023-02-26T16:57:22;3.78;;;1.00;;
76495;SDS011;65329;52.544;4.662;2023-02-26T16:59:54;4.10;;;0.80;;
76495;SDS011;65329;52.544;4.662;2023-02-26T17:02:25;3.85;;;1.08;;
76495;SDS011;65329;52.544;4.662;2023-02-26T17:05:15;4.07;;;1.05;;
76495;SDS011;65329;52.544;4.662;2023-02-26T17:07:51;4.47;;;1.38;;
76495;SDS011;65329;52.544;4.662;2023-02-26T17:10:34;3.08;;;1.60;;
76495;SDS011;65329;52.544;4.662;2023-02-26T17:13:11;2.20;;;0.95;;
76495;SDS011;65329;52.544;4.662;2023-02-26T17:15:40;3.63;;;1.80;;
76495;SDS011;65329;52.544;4.662;2023-02-26T17:18:09;3.78;;;1.40;;
76495;SDS011;65329;52.544;4.662;2023-02-26T17:20:36;4.00;;;1.30;;
76495;SDS011;65329;52.544;4.662;2023-02-26T17:23:07;4.13;;;1.60;;
76495;SDS011;65329;52.544;4.662;2023-02-26T17:25:36;3.08;;;1.20;;
76495;SDS011;65329;52.544;4.662;2023-02-26T17:28:05;1.98;;;0.80;;
76495;SDS011;65329;52.544;4.662;2023-02-26T17:30:35;4.68;;;1.33;;
76495;SDS011;65329;52.544;4.662;2023-02-26T17:33:02;4.30;;;1.52;;
76495;SDS011;65329;52.544;4.662;2023-02-26T17:35:30;3.70;;;1.50;;
76495;SDS011;65329;52.544;4.662;2023-02-26T17:37:57;8.98;;;2.05;;
76495;SDS011;65329;52.544;4.662;2023-02-26T17:40:31;5.22;;;1.10;;
76495;SDS011;65329;52.544;4.662;2023-02-26T17:43:02;6.68;;;1.88;;
76495;SDS011;65329;52.544;4.662;2023-02-26T17:45:30;5.20;;;1.65;;
76495;SDS011;65329;52.544;4.662;2023-02-26T17:47:59;4.47;;;1.75;;
76495;SDS011;65329;52.544;4.662;2023-02-26T17:53:12;6.50;;;2.05;;
76495;SDS011;65329;52.544;4.662;2023-02-26T17:55:43;10.73;;;3.00;;
76495;SDS011;65329;52.544;4.662;2023-02-26T17:58:13;9.60;;;3.20;;
76495;SDS011;65329;52.544;4.662;2023-02-26T18:00:42;6.05;;;3.03;;
76495;SDS011;65329;52.544;4.662;2023-02-26T18:03:11;6.45;;;2.90;;
76495;SDS011;65329;52.544;4.662;2023-02-26T18:05:38;8.10;;;2.80;;
76495;SDS011;65329;52.544;4.662;2023-02-26T18:08:26;6.80;;;3.10;;
76495;SDS011;65329;52.544;4.662;2023-02-26T18:10:56;6.03;;;2.53;;
76495;SDS011;65329;52.544;4.662;2023-02-26T18:13:24;8.23;;;3.13;;
76495;SDS011;65329;52.544;4.662;2023-02-26T18:15:51;4.22;;;2.95;;